Time;durP1;ratioP1;P1;durP2;ratioP2;P2;SDS_P1;SDS_P2;PMS_P1;PMS_P2;Temp;Humidity;BMP_temperature;BMP_pressure;BME280_temperature;BME280_humidity;BME280_pressure;Samples;Min_cycle;Max_cycle;Signal;HPM_P1;HPM_P2
2021/07/22 00:00:24;;;;;;;17.73;10.33;;;;;;;16.79;100.00;94977.13;10572348;28;20049;-78
2021/07/22 00:05:25;;;;;;;21.33;10.73;;;;;;;16.83;100.00;94969.16;10573136;28;20027;-78
2021/07/22 00:10:25;;;;;;;16.65;9.25;;;;;;;16.82;100.00;94968.34;10573846;28;20261;-78
2021/07/22 00:15:25;;;;;;;19.33;10.30;;;;;;;16.84;100.00;94970.75;10572145;28;20024;-79
2021/07/22 00:20:26;;;;;;;17.40;9.20;;;;;;;16.88;100.00;94961.75;10554442;28;20020;-78
2021/07/22 00:25:26;;;;;;;21.73;9.83;;;;;;;16.86;100.00;94966.63;10573221;28;20492;-78
2021/07/22 00:30:26;;;;;;;17.13;9.47;;;;;;;16.79;100.00;94960.84;10572877;28;20848;-78
2021/07/22 00:35:30;;;;;;;27.03;11.93;;;;;;;16.80;100.00;94957.03;10554361;28;20032;-78
2021/07/22 00:40:30;;;;;;;16.45;9.68;;;;;;;16.71;100.00;94959.63;10572899;28;20101;-78
2021/07/22 00:45:31;;;;;;;18.83;10.50;;;;;;;16.73;100.00;94951.19;10572141;28;20031;-78
2021/07/22 00:50:32;;;;;;;18.10;9.65;;;;;;;16.72;100.00;94955.81;10571755;28;20024;-78
2021/07/22 00:55:32;;;;;;;19.10;9.85;;;;;;;16.75;100.00;94955.19;10571888;28;20506;-78
2021/07/22 01:00:32;;;;;;;20.20;9.87;;;;;;;16.83;100.00;94956.41;10571619;28;20762;-78
2021/07/22 01:05:33;;;;;;;14.47;9.57;;;;;;;16.99;100.00;94942.50;10551331;28;20513;-78
2021/07/22 01:10:33;;;;;;;18.50;10.60;;;;;;;16.90;100.00;94943.22;10571052;28;20080;-78
2021/07/22 01:15:34;;;;;;;15.77;9.32;;;;;;;16.99;100.00;94940.56;10571332;28;20842;-79
2021/07/22 01:20:34;;;;;;;16.52;9.70;;;;;;;16.96;100.00;94951.25;10570262;28;20028;-79
2021/07/22 01:25:35;;;;;;;16.37;9.27;;;;;;;16.85;100.00;94947.94;10570666;28;20517;-79
2021/07/22 01:30:35;;;;;;;17.87;9.83;;;;;;;16.78;100.00;94953.00;10571028;28;20019;-79
2021/07/22 01:35:37;;;;;;;17.57;9.47;;;;;;;16.79;100.00;94951.91;10569807;28;20085;-80
2021/07/22 01:40:38;;;;;;;15.00;8.52;;;;;;;16.78;100.00;94951.06;10570770;28;20293;-79
2021/07/22 01:45:38;;;;;;;17.50;9.53;;;;;;;16.62;100.00;94956.06;10569115;28;20019;-79
2021/07/22 01:50:38;;;;;;;17.92;9.52;;;;;;;16.63;100.00;94956.84;10567097;28;20448;-80
2021/07/22 01:55:39;;;;;;;18.13;9.40;;;;;;;16.55;100.00;94950.25;10569553;28;20024;-80
2021/07/22 02:00:39;;;;;;;18.20;10.27;;;;;;;16.45;100.00;94953.19;10551211;28;20035;-79
2021/07/22 02:05:39;;;;;;;16.20;9.47;;;;;;;16.43;100.00;94955.41;10567685;28;20024;-79
2021/07/22 02:10:40;;;;;;;24.13;10.70;;;;;;;16.33;100.00;94945.59;10567997;28;20265;-79
2021/07/22 02:15:40;;;;;;;17.77;9.17;;;;;;;16.30;100.00;94949.69;10568063;28;20023;-79
2021/07/22 02:20:40;;;;;;;22.93;10.03;;;;;;;16.31;100.00;94951.31;10568567;28;20026;-79
2021/07/22 02:25:41;;;;;;;24.70;9.23;;;;;;;16.40;100.00;94956.81;10569800;28;20047;-79
2021/07/22 02:30:41;;;;;;;16.60;8.60;;;;;;;16.45;100.00;94953.19;10570023;28;20110;-79
2021/07/22 02:35:42;;;;;;;14.77;8.10;;;;;;;16.39;100.00;94953.28;10569168;28;20490;-79
2021/07/22 02:40:42;;;;;;;15.67;8.27;;;;;;;16.39;100.00;94953.28;10568543;28;20501;-79
2021/07/22 02:45:43;;;;;;;16.27;10.23;;;;;;;16.33;100.00;94953.72;10569053;28;20035;-79
2021/07/22 02:50:43;;;;;;;18.23;9.10;;;;;;;16.31;100.00;94967.59;10569038;28;20028;-79
2021/07/22 02:55:43;;;;;;;20.77;9.35;;;;;;;16.42;100.00;94968.16;10568153;28;20027;-79
2021/07/22 03:00:44;;;;;;;21.70;9.97;;;;;;;16.42;100.00;94962.72;10568603;28;20188;-79
2021/07/22 03:05:44;;;;;;;18.67;8.80;;;;;;;16.43;100.00;94966.25;10550400;28;20443;-79
2021/07/22 03:10:44;;;;;;;18.80;9.93;;;;;;;16.44;100.00;94968.66;10568784;28;20038;-79
2021/07/22 03:15:45;;;;;;;15.57;9.23;;;;;;;16.37;100.00;94976.41;10568611;28;20317;-79
2021/07/22 03:20:47;;;;;;;20.15;11.25;;;;;;;16.31;100.00;94970.31;10568612;28;20080;-79
2021/07/22 03:25:47;;;;;;;15.05;8.13;;;;;;;16.38;100.00;94956.31;10570403;28;20605;-79
2021/07/22 03:30:48;;;;;;;16.83;9.50;;;;;;;16.43;100.00;94950.78;10576731;28;20023;-79
2021/07/22 03:35:48;;;;;;;20.00;10.13;;;;;;;16.48;100.00;94947.13;10577149;28;20047;-79
2021/07/22 03:40:48;;;;;;;14.63;9.70;;;;;;;16.51;100.00;94952.78;10594530;27;20035;-78
2021/07/22 03:45:59;;;;;;;14.40;9.27;;;;;;;16.60;100.00;94957.47;10611424;27;20031;-78
2021/07/22 03:50:59;;;;;;;17.77;9.35;;;;;;;16.61;100.00;94959.88;10608606;27;20036;-78
2021/07/22 03:56:01;;;;;;;19.30;9.77;;;;;;;16.69;100.00;94955.66;10573607;28;20489;-78
2021/07/22 04:01:01;;;;;;;22.38;9.55;;;;;;;16.65;100.00;94960.09;10574791;28;20321;-79
2021/07/22 04:06:02;;;;;;;17.77;9.17;;;;;;;16.94;100.00;94972.47;10575314;28;20138;-79
2021/07/22 04:11:02;;;;;;;19.13;9.60;;;;;;;17.03;100.00;94976.06;10575297;28;20043;-79
2021/07/22 04:16:03;;;;;;;17.05;9.68;;;;;;;17.12;100.00;94982.38;10575424;28;20032;-78
2021/07/22 04:21:03;;;;;;;20.50;9.70;;;;;;;17.34;100.00;94989.69;10575196;28;20479;-78
2021/07/22 04:26:04;;;;;;;17.70;8.77;;;;;;;17.44;100.00;94996.78;10545708;28;20533;-79
2021/07/22 04:31:04;;;;;;;16.45;9.00;;;;;;;17.41;100.00;94992.78;10532778;28;20036;-79
2021/07/22 04:36:04;;;;;;;17.07;9.07;;;;;;;17.51;100.00;94993.63;10532171;28;20066;-80
2021/07/22 04:41:05;;;;;;;14.93;9.67;;;;;;;17.65;100.00;94993.53;10565268;28;20028;-81
2021/07/22 04:46:06;;;;;;;25.48;11.60;;;;;;;17.57;100.00;94995.91;10538921;28;20499;-81
2021/07/22 04:51:06;;;;;;;19.60;9.77;;;;;;;17.71;100.00;95001.25;10567171;28;20040;-81
2021/07/22 04:56:08;;;;;;;21.65;9.75;;;;;;;17.84;100.00;95007.72;10545943;28;20040;-77
2021/07/22 05:01:09;;;;;;;16.98;9.20;;;;;;;17.83;100.00;94997.94;10542202;28;20027;-77
2021/07/22 05:06:09;;;;;;;19.25;9.98;;;;;;;17.98;100.00;94996.75;10557525;28;20032;-77
2021/07/22 05:11:10;;;;;;;17.47;9.17;;;;;;;17.86;100.00;94996.53;10533072;28;20035;-77
2021/07/22 05:16:10;;;;;;;22.17;9.98;;;;;;;18.41;100.00;94996.09;10533340;28;20100;-77
2021/07/22 05:21:11;;;;;;;19.97;8.93;;;;;;;18.50;100.00;94993.41;10533328;28;20411;-77
2021/07/22 05:26:11;;;;;;;22.97;9.70;;;;;;;18.62;100.00;94995.50;10543074;28;20293;-77
2021/07/22 05:31:12;;;;;;;18.73;9.57;;;;;;;18.33;100.00;94998.81;10575050;28;20366;-78
2021/07/22 05:36:12;;;;;;;19.87;9.27;;;;;;;18.76;100.00;94990.72;10574180;28;20401;-77
2021/07/22 05:41:12;;;;;;;14.80;8.73;;;;;;;20.21;100.00;94997.75;10574860;28;20122;-77
2021/07/22 05:46:18;;;;;;;15.07;7.25;;;;;;;21.76;100.00;95002.75;10573972;28;20043;-78
2021/07/22 05:51:18;;;;;;;15.48;6.95;;;;;;;22.07;100.00;95013.19;10573492;28;20054;-77
2021/07/22 05:56:18;;;;;;;10.83;6.97;;;;;;;21.99;100.00;95005.88;10570871;28;20046;-77
2021/07/22 06:01:19;;;;;;;14.00;6.77;;;;;;;22.60;100.00;95007.06;10570848;28;20039;-77
2021/07/22 06:06:19;;;;;;;15.93;7.20;;;;;;;22.95;97.00;95001.88;10570752;28;20309;-77
2021/07/22 06:11:20;;;;;;;8.80;5.68;;;;;;;24.29;83.65;94994.56;10570223;28;20281;-77
2021/07/22 06:16:20;;;;;;;10.93;5.77;;;;;;;24.47;78.60;94997.75;10570086;28;20047;-77
2021/07/22 06:21:21;;;;;;;9.98;5.40;;;;;;;24.93;72.52;94998.03;10569632;28;20061;-77
2021/07/22 06:26:21;;;;;;;10.73;5.00;;;;;;;26.61;64.22;95007.94;10570163;28;20043;-77
2021/07/22 06:31:21;;;;;;;11.23;4.83;;;;;;;27.27;58.47;94998.63;10569200;28;20050;-77
2021/07/22 06:36:22;;;;;;;4.70;2.97;;;;;;;28.03;50.88;95003.09;10569759;28;20269;-78
2021/07/22 06:41:23;;;;;;;6.10;3.20;;;;;;;29.17;46.84;95000.84;10569536;28;20027;-78
2021/07/22 06:46:23;;;;;;;6.20;3.73;;;;;;;29.93;44.11;95004.75;10568831;28;20089;-78
2021/07/22 06:51:24;;;;;;;8.93;3.90;;;;;;;29.71;43.25;94995.53;10569470;28;20467;-78
2021/07/22 06:56:24;;;;;;;5.07;2.83;;;;;;;30.47;41.06;95000.09;10569546;28;20080;-78
2021/07/22 07:01:25;;;;;;;6.67;3.30;;;;;;;30.51;39.33;94986.25;10568830;28;20042;-77
2021/07/22 07:06:25;;;;;;;9.07;3.17;;;;;;;31.32;37.91;94983.72;10568569;28;20038;-78
2021/07/22 07:11:25;;;;;;;10.13;3.63;;;;;;;31.83;37.56;94984.34;10568873;28;20518;-78
2021/07/22 07:16:26;;;;;;;6.00;2.57;;;;;;;31.73;36.69;94974.06;10568691;28;20438;-78
2021/07/22 07:21:26;;;;;;;3.50;2.50;;;;;;;31.65;35.83;94967.75;10567991;28;20027;-78
2021/07/22 07:26:26;;;;;;;4.00;2.43;;;;;;;32.02;35.88;94971.91;10568836;28;20056;-78
2021/07/22 07:31:27;;;;;;;6.40;3.50;;;;;;;32.69;34.85;94973.84;10568543;28;20142;-78
2021/07/22 07:36:27;;;;;;;5.55;3.05;;;;;;;32.44;35.59;94960.13;10567525;28;20118;-78
2021/07/22 07:41:28;;;;;;;6.07;3.10;;;;;;;33.58;32.46;94956.63;10550254;28;20032;-78
2021/07/22 07:46:28;;;;;;;3.17;2.13;;;;;;;34.27;31.04;94953.66;10568251;28;20081;-76
2021/07/22 07:51:29;;;;;;;4.53;2.30;;;;;;;34.96;29.52;94947.75;10568015;28;20036;-76
2021/07/22 07:56:30;;;;;;;12.88;3.47;;;;;;;35.68;28.62;94951.94;10571088;28;20410;-76
2021/07/22 08:01:30;;;;;;;3.73;2.03;;;;;;;36.09;28.32;94945.09;10570914;28;20028;-78
2021/07/22 08:06:31;;;;;;;2.45;1.27;;;;;;;36.00;25.66;94951.25;10570194;28;20521;-78
2021/07/22 08:11:31;;;;;;;3.47;1.93;;;;;;;35.43;26.88;94947.66;10572023;28;20028;-78
2021/07/22 08:16:31;;;;;;;4.17;2.13;;;;;;;34.63;28.71;94953.88;10578142;28;20024;-78
2021/07/22 08:21:32;;;;;;;3.60;2.30;;;;;;;34.36;29.03;94953.97;10577611;28;20384;-78
2021/07/22 08:26:32;;;;;;;3.07;1.40;;;;;;;35.66;26.61;94949.59;10577414;28;20128;-76
2021/07/22 08:31:32;;;;;;;4.67;1.77;;;;;;;36.67;26.62;94957.72;10577681;28;20451;-78
2021/07/22 08:36:33;;;;;;;6.43;2.00;;;;;;;36.69;24.98;94953.25;10577664;28;20064;-77
2021/07/22 08:41:33;;;;;;;3.83;1.83;;;;;;;36.01;26.20;94952.06;10558374;28;20034;-77
2021/07/22 08:46:39;;;;;;;2.28;1.63;;;;;;;37.22;26.59;94946.72;10576956;28;20051;-77
2021/07/22 08:51:43;;;;;;;3.38;1.63;;;;;;;38.22;24.29;94954.25;10575909;28;20028;-77
2021/07/22 08:56:44;;;;;;;3.80;1.45;;;;;;;37.22;25.31;94953.09;10573015;28;20028;-78
2021/07/22 09:01:45;;;;;;;4.10;1.92;;;;;;;38.39;23.73;94946.50;10572982;28;20042;-77
2021/07/22 09:06:45;;;;;;;2.42;1.80;;;;;;;36.47;25.85;94939.00;10572429;28;20054;-77
2021/07/22 09:11:57;;;;;;;4.47;1.80;;;;;;;33.46;29.26;94944.78;10572308;28;20080;-77
2021/07/22 09:16:58;;;;;;;5.32;2.30;;;;;;;31.77;30.63;94935.94;10572284;28;20057;-78
2021/07/22 09:21:59;;;;;;;5.43;2.30;;;;;;;28.94;35.02;94946.53;10571551;28;20081;-77
2021/07/22 09:26:59;;;;;;;8.82;2.67;;;;;;;28.56;37.92;94943.91;10570726;28;20429;-77
2021/07/22 09:32:06;;;;;;;5.33;2.93;;;;;;;27.75;40.65;94946.34;10571565;28;20067;-77
2021/07/22 09:37:09;;;;;;;5.95;3.42;;;;;;;26.88;43.89;94946.50;10571660;28;20130;-77
2021/07/22 09:42:10;;;;;;;7.05;3.22;;;;;;;26.57;44.48;94948.41;10571144;28;20193;-77
2021/07/22 09:47:10;;;;;;;4.20;2.50;;;;;;;26.39;44.19;94956.41;10570536;28;20087;-77
2021/07/22 09:52:16;;;;;;;3.47;2.20;;;;;;;25.93;45.77;94951.69;10570824;28;20031;-77
2021/07/22 09:57:19;;;;;;;4.45;2.50;;;;;;;26.05;45.26;94959.78;10570267;28;20277;-77
2021/07/22 10:02:24;;;;;;;4.07;2.65;;;;;;;26.19;43.72;94947.41;10570153;28;20023;-77
2021/07/22 10:07:25;;;;;;;3.90;2.28;;;;;;;26.60;43.89;94951.19;10569627;28;20027;-77
2021/07/22 10:12:26;;;;;;;6.32;2.45;;;;;;;27.16;42.86;94942.53;10569958;28;20031;-77
2021/07/22 10:17:36;;;;;;;5.20;2.37;;;;;;;27.61;39.88;94940.69;10569228;28;20087;-77
2021/07/22 10:22:37;;;;;;;2.60;1.80;;;;;;;27.65;39.59;94935.22;10569922;28;20595;-77
2021/07/22 10:27:42;;;;;;;5.30;2.00;;;;;;;27.94;39.16;94933.53;10569351;28;20043;-77
2021/07/22 10:32:47;;;;;;;13.63;2.40;;;;;;;29.36;38.05;94934.13;10569419;28;20035;-78
2021/07/22 10:38:14;;;;;;;4.38;1.95;;;;;;;29.68;37.36;94930.63;10550879;28;20123;-78
2021/07/22 10:43:29;;;;;;;2.63;2.05;;;;;;;30.03;36.42;94917.28;10569037;28;20027;-78
2021/07/22 10:48:30;;;;;;;2.97;1.83;;;;;;;32.03;32.81;94922.66;10568459;28;20167;-78
2021/07/22 10:54:00;;;;;;;5.75;2.40;;;;;;;30.08;35.45;94914.13;10568601;28;20027;-78
2021/07/22 10:59:00;;;;;;;2.95;1.75;;;;;;;29.45;36.74;94912.38;10554759;28;20731;-78
2021/07/22 11:04:01;;;;;;;5.00;1.97;;;;;;;31.47;33.63;94900.38;10550603;28;20024;-78
2021/07/22 11:09:08;;;;;;;4.57;1.70;;;;;;;32.39;31.61;94891.81;10567753;28;20484;-79
2021/07/22 11:14:31;;;;;;;5.82;1.95;;;;;;;31.59;33.08;94899.13;10567795;28;20397;-78
2021/07/22 11:19:31;;;;;;;12.50;2.53;;;;;;;30.73;34.23;94906.56;10567789;28;20098;-78
2021/07/22 11:24:31;;;;;;;5.30;2.00;;;;;;;30.13;34.59;94892.34;10567963;28;20044;-78
2021/07/22 11:29:32;;;;;;;2.30;1.70;;;;;;;29.67;35.11;94879.22;10567325;28;20016;-78
2021/07/22 11:34:34;;;;;;;2.47;1.40;;;;;;;28.61;35.27;94884.72;10567528;28;20019;-79
2021/07/22 11:39:39;;;;;;;4.07;2.00;;;;;;;28.40;37.63;94891.69;10567938;28;20108;-78
2021/07/22 11:44:40;;;;;;;3.78;2.17;;;;;;;28.18;39.28;94884.41;10567384;28;20070;-78
2021/07/22 11:49:41;;;;;;;4.28;2.35;;;;;;;27.43;40.36;94871.50;10574168;28;20108;-76
2021/07/22 11:54:41;;;;;;;4.73;2.00;;;;;;;26.99;40.88;94888.69;10575339;28;20023;-79
2021/07/22 11:59:42;;;;;;;5.17;1.90;;;;;;;26.64;41.34;94890.63;10575237;28;20285;-76
2021/07/22 12:04:51;;;;;;;3.53;1.73;;;;;;;26.40;42.12;94891.81;10575171;28;20613;-77
2021/07/22 12:09:54;;;;;;;3.83;2.25;;;;;;;26.47;43.53;94885.63;10576248;28;20269;-82
2021/07/22 12:15:09;;;;;;;3.65;2.40;;;;;;;26.47;43.07;94891.16;10541173;28;20062;-82
2021/07/22 12:20:09;;;;;;;3.13;1.88;;;;;;;26.91;44.36;94885.06;10534503;28;20050;-81
2021/07/22 12:25:12;;;;;;;3.30;2.17;;;;;;;26.69;45.32;94875.69;10533698;28;20047;-81
2021/07/22 12:30:13;;;;;;;4.30;1.90;;;;;;;27.20;43.99;94866.91;10534341;28;20012;-81
2021/07/22 12:35:44;;;;;;;9.10;2.92;;;;;;;26.66;42.55;94859.91;10534442;28;20032;-82
2021/07/22 12:40:59;;;;;;;3.80;2.47;;;;;;;26.56;42.67;94853.09;10534273;28;20032;-81
2021/07/22 12:46:15;;;;;;;5.63;1.98;;;;;;;26.27;41.82;94853.47;10534388;28;20074;-81
2021/07/22 12:51:21;;;;;;;4.00;2.15;;;;;;;26.05;44.71;94859.81;10532442;28;20022;-81
2021/07/22 12:56:21;;;;;;;2.92;2.15;;;;;;;25.45;46.37;94857.63;10532529;28;20016;-78
2021/07/22 13:01:24;;;;;;;3.73;1.80;;;;;;;25.51;45.15;94859.72;10551673;28;20016;-78
2021/07/22 13:06:24;;;;;;;5.07;2.08;;;;;;;25.37;45.65;94859.47;10532704;28;20077;-79
2021/07/22 13:11:25;;;;;;;3.38;2.05;;;;;;;25.30;45.99;94851.84;10530101;28;20024;-78
2021/07/22 13:16:25;;;;;;;4.50;1.70;;;;;;;25.24;46.05;94858.78;10529963;28;20031;-78
2021/07/22 13:21:27;;;;;;;2.23;1.73;;;;;;;25.30;45.64;94849.09;10528393;28;20020;-76
2021/07/22 13:26:27;;;;;;;2.42;1.65;;;;;;;25.54;45.54;94839.72;10528043;28;20286;-77
2021/07/22 13:31:27;;;;;;;4.27;1.87;;;;;;;25.73;45.00;94838.03;10528089;28;20020;-77
2021/07/22 13:36:31;;;;;;;4.97;1.50;;;;;;;25.88;44.47;94845.38;10528198;28;20050;-78
2021/07/22 13:41:31;;;;;;;5.68;1.63;;;;;;;25.79;44.43;94836.59;10527476;28;20032;-79
2021/07/22 13:46:32;;;;;;;3.57;1.77;;;;;;;25.72;44.60;94834.50;10527472;28;20471;-79
2021/07/22 13:51:32;;;;;;;2.73;1.87;;;;;;;25.62;44.55;94831.56;10543555;28;20800;-79
2021/07/22 13:56:32;;;;;;;1.77;1.67;;;;;;;25.58;45.22;94834.28;10526494;28;20282;-77
2021/07/22 14:01:33;;;;;;;2.73;2.00;;;;;;;25.52;46.11;94838.47;10527110;28;20059;-76
2021/07/22 14:06:33;;;;;;;3.15;1.88;;;;;;;25.50;45.91;94832.56;10526591;28;20027;-76
2021/07/22 14:11:34;;;;;;;3.83;2.00;;;;;;;25.45;46.11;94836.41;10525862;28;20024;-78
2021/07/22 14:16:34;;;;;;;4.65;1.90;;;;;;;25.45;46.43;94832.88;10526234;28;20277;-78
2021/07/22 14:21:35;;;;;;;13.13;2.13;;;;;;;25.51;47.69;94825.88;10525619;28;20043;-78
2021/07/22 14:26:36;;;;;;;2.78;1.70;;;;;;;25.46;46.93;94829.75;10492695;28;20048;-78
2021/07/22 14:31:39;;;;;;;2.47;1.63;;;;;;;25.08;47.41;94829.44;10483981;28;20025;-80
2021/07/22 14:36:39;;;;;;;2.78;2.10;;;;;;;25.12;48.38;94823.19;10484465;28;20024;-80
2021/07/22 14:41:40;;;;;;;6.40;2.30;;;;;;;25.04;50.54;94820.31;10483982;28;20036;-78
2021/07/22 14:46:40;;;;;;;3.80;2.10;;;;;;;24.92;48.33;94817.72;10483081;28;20032;-80
2021/07/22 14:51:41;;;;;;;5.60;2.10;;;;;;;24.87;50.02;94820.78;10484085;28;20107;-79
2021/07/22 14:56:41;;;;;;;3.00;1.83;;;;;;;24.93;49.32;94818.53;10483154;28;20029;-80
2021/07/22 15:01:42;;;;;;;7.13;2.60;;;;;;;24.96;51.12;94818.59;10483175;28;20845;-78
2021/07/22 15:06:42;;;;;;;5.70;2.13;;;;;;;24.91;49.83;94810.66;10483263;28;20028;-80
2021/07/22 15:11:42;;;;;;;3.53;2.20;;;;;;;24.91;49.18;94814.19;10483317;28;20032;-78
2021/07/22 15:16:43;;;;;;;2.83;2.07;;;;;;;24.77;48.21;94804.88;10482799;28;20275;-79
2021/07/22 15:21:43;;;;;;;3.53;2.20;;;;;;;24.76;49.35;94814.28;10484773;28;20290;-79
2021/07/22 15:26:44;;;;;;;3.25;2.38;;;;;;;24.62;49.95;94812.84;10524205;28;20048;-79
2021/07/22 15:31:45;;;;;;;6.90;2.20;;;;;;;24.45;50.69;94804.97;10532869;28;20038;-80
2021/07/22 15:36:46;;;;;;;3.03;1.52;;;;;;;24.41;52.45;94807.66;10534021;28;20031;-79
2021/07/22 15:41:46;;;;;;;3.97;2.08;;;;;;;24.21;51.88;94804.09;10532789;28;20028;-80
2021/07/22 15:46:47;;;;;;;5.40;2.00;;;;;;;24.05;52.65;94802.19;10532241;28;20036;-80
2021/07/22 15:51:47;;;;;;;4.93;1.67;;;;;;;23.92;53.06;94792.47;10532281;28;20023;-77
2021/07/22 15:56:47;;;;;;;4.00;2.23;;;;;;;23.51;53.89;94797.34;10531598;28;20114;-80
2021/07/22 16:01:48;;;;;;;4.60;2.00;;;;;;;23.51;56.18;94791.88;10531447;28;20040;-80
2021/07/22 16:06:48;;;;;;;2.72;2.30;;;;;;;23.40;56.13;94794.38;10531443;28;20821;-79
2021/07/22 16:11:49;;;;;;;3.97;2.33;;;;;;;23.38;58.41;94793.91;10531101;28;20028;-79
2021/07/22 16:16:49;;;;;;;4.05;2.22;;;;;;;23.33;58.02;94791.44;10531123;28;20699;-79
2021/07/22 16:21:50;;;;;;;4.90;1.83;;;;;;;23.15;61.09;94790.97;10546680;28;20041;-80
2021/07/22 16:26:50;;;;;;;4.57;2.33;;;;;;;23.12;63.21;94794.44;10530819;28;20479;-80
2021/07/22 16:31:51;;;;;;;4.55;2.45;;;;;;;23.04;59.93;94801.66;10530622;28;20027;-79
2021/07/22 16:36:51;;;;;;;2.60;1.83;;;;;;;23.01;62.97;94789.44;10528689;28;20032;-80
2021/07/22 16:41:51;;;;;;;5.67;1.90;;;;;;;23.01;58.87;94803.16;10528966;28;20035;-80
2021/07/22 16:46:52;;;;;;;3.70;2.10;;;;;;;22.95;64.91;94803.75;10528990;28;20051;-77
2021/07/22 16:51:53;;;;;;;2.85;2.10;;;;;;;22.90;63.07;94807.56;10528689;28;20548;-78
2021/07/22 16:56:53;;;;;;;5.82;1.92;;;;;;;22.85;65.19;94814.06;10529529;28;20032;-77
2021/07/22 17:01:54;;;;;;;2.67;1.57;;;;;;;22.80;64.39;94813.53;10550067;27;20650;-77
2021/07/22 17:06:55;;;;;;;3.63;1.60;;;;;;;22.79;67.51;94817.44;10592386;27;20789;-76
2021/07/22 17:11:57;;;;;;;3.63;1.67;;;;;;;22.69;64.57;94810.50;10595161;27;20022;-76
2021/07/22 17:16:57;;;;;;;7.07;1.90;;;;;;;22.66;69.75;94833.09;10570959;28;20037;-75
2021/07/22 17:21:58;;;;;;;3.95;2.00;;;;;;;22.56;69.77;94823.44;10569569;28;20035;-76
2021/07/22 17:26:59;;;;;;;3.17;1.83;;;;;;;22.40;72.88;94820.63;10562899;27;20116;-75
2021/07/22 17:31:59;;;;;;;4.57;2.50;;;;;;;22.39;74.25;94826.47;10612307;27;20026;-77
2021/07/22 17:37:00;;;;;;;4.93;2.00;;;;;;;22.27;75.75;94824.50;10611622;27;20038;-75
2021/07/22 17:42:01;;;;;;;4.75;2.80;;;;;;;22.26;76.29;94825.69;10611953;27;20038;-76
2021/07/22 17:47:02;;;;;;;8.35;2.28;;;;;;;22.19;75.41;94820.78;10626416;27;20046;-76
2021/07/22 17:52:03;;;;;;;5.65;2.33;;;;;;;22.16;76.95;94826.94;10611238;27;20026;-76
2021/07/22 17:57:04;;;;;;;5.80;2.58;;;;;;;22.05;78.46;94834.00;10611054;27;20157;-75
2021/07/22 18:02:07;;;;;;;4.90;2.90;;;;;;;21.98;80.57;94829.94;10603425;27;20152;-76
2021/07/22 18:07:07;;;;;;;3.90;3.05;;;;;;;21.93;81.80;94845.78;10525467;28;20040;-76
2021/07/22 18:12:08;;;;;;;11.73;2.80;;;;;;;21.57;87.41;94848.16;10525693;28;20040;-75
2021/07/22 18:17:08;;;;;;;3.92;2.67;;;;;;;21.41;88.72;94849.97;10525227;28;20036;-76
2021/07/22 18:22:09;;;;;;;6.43;2.80;;;;;;;21.32;89.63;94848.13;10541168;28;20028;-75
2021/07/22 18:27:09;;;;;;;9.23;3.20;;;;;;;21.23;92.70;94844.69;10525387;28;21083;-75
2021/07/22 18:32:13;;;;;;;7.50;3.67;;;;;;;21.17;92.15;94854.25;10525116;28;20020;-74
2021/07/22 18:37:16;;;;;;;7.13;3.40;;;;;;;20.92;94.38;94862.34;10540922;28;20381;-79
2021/07/22 18:42:17;;;;;;;10.80;5.00;;;;;;;20.77;95.81;94866.50;10526088;28;20143;-77
2021/07/22 18:47:17;;;;;;;6.63;3.70;;;;;;;20.76;100.00;94866.84;10525250;28;20050;-78
2021/07/22 18:52:17;;;;;;;10.23;4.43;;;;;;;20.61;98.85;94874.50;10526044;28;20035;-82
2021/07/22 18:57:18;;;;;;;7.90;3.83;;;;;;;20.56;100.00;94882.88;10526552;28;20047;-80
2021/07/22 19:02:22;;;;;;;4.70;3.23;;;;;;;20.55;100.00;94880.47;10525744;28;20088;-83
2021/07/22 19:07:23;;;;;;;10.15;3.33;;;;;;;20.29;100.00;94887.72;10525722;28;20399;-79
2021/07/22 19:12:23;;;;;;;7.17;4.50;;;;;;;20.15;100.00;94884.47;10523837;28;20028;-79
2021/07/22 19:17:23;;;;;;;4.33;2.80;;;;;;;20.03;100.00;94898.78;10524228;28;20274;-78
2021/07/22 19:22:24;;;;;;;4.47;3.23;;;;;;;19.90;100.00;94899.81;10505636;28;20032;-79
2021/07/22 19:27:24;;;;;;;14.52;4.75;;;;;;;19.74;100.00;94894.09;10523845;28;20474;-79
2021/07/22 19:32:25;;;;;;;13.00;4.15;;;;;;;19.69;100.00;94891.53;10524876;28;20495;-79
2021/07/22 19:37:26;;;;;;;7.97;3.93;;;;;;;19.44;100.00;94907.69;10525063;28;20479;-81
2021/07/22 19:42:27;;;;;;;5.22;3.22;;;;;;;19.34;100.00;94899.84;10580951;28;20118;-81
2021/07/22 19:47:27;;;;;;;7.43;3.03;;;;;;;19.05;100.00;94909.53;10561383;28;20036;-80
2021/07/22 19:52:27;;;;;;;6.97;3.30;;;;;;;18.81;100.00;94902.66;10578296;27;20019;-80
2021/07/22 19:57:28;;;;;;;12.60;4.43;;;;;;;18.88;100.00;94911.16;10589781;27;20030;-79
2021/07/22 20:02:28;;;;;;;12.07;4.33;;;;;;;18.82;100.00;94914.31;10585956;28;20643;-80
2021/07/22 20:07:28;;;;;;;9.80;5.72;;;;;;;18.71;100.00;94906.50;10615085;27;20114;-80
2021/07/22 20:12:30;;;;;;;8.93;3.00;;;;;;;18.73;100.00;94898.00;10616104;27;20035;-80
2021/07/22 20:17:30;;;;;;;7.13;3.42;;;;;;;18.62;100.00;94911.91;10575644;28;20031;-79
2021/07/22 20:22:31;;;;;;;4.83;3.27;;;;;;;18.51;100.00;94901.69;10575509;28;20043;-79
2021/07/22 20:27:32;;;;;;;9.43;3.22;;;;;;;18.51;100.00;94905.19;10582639;27;20044;-78
2021/07/22 20:32:32;;;;;;;6.23;2.70;;;;;;;18.35;100.00;94904.88;10586412;27;20032;-81
2021/07/22 20:37:33;;;;;;;3.97;2.73;;;;;;;18.32;100.00;94902.78;10597774;27;20034;-81
2021/07/22 20:42:33;;;;;;;4.70;3.03;;;;;;;18.22;100.00;94905.81;10600696;27;20277;-80
2021/07/22 20:47:34;;;;;;;5.68;2.95;;;;;;;18.40;100.00;94906.63;10580403;27;20031;-79
2021/07/22 20:52:34;;;;;;;10.33;3.43;;;;;;;18.23;100.00;94904.69;10581781;27;20032;-80
2021/07/22 20:57:35;;;;;;;10.70;3.47;;;;;;;18.18;100.00;94899.38;10574855;28;20042;-80
2021/07/22 21:02:38;;;;;;;7.53;4.00;;;;;;;18.12;100.00;94908.84;10557672;28;20027;-80
2021/07/22 21:07:39;;;;;;;7.32;3.30;;;;;;;18.00;100.00;94899.38;10574458;28;20284;-79
2021/07/22 21:12:41;;;;;;;4.53;3.20;;;;;;;17.93;100.00;94902.53;10538525;28;20028;-79
2021/07/22 21:17:42;;;;;;;4.75;2.95;;;;;;;17.85;100.00;94903.28;10530721;28;20115;-80
2021/07/22 21:22:42;;;;;;;5.27;3.00;;;;;;;17.85;100.00;94905.22;10563791;27;20460;-79
2021/07/22 21:27:43;;;;;;;5.97;3.20;;;;;;;17.81;100.00;94905.03;10590862;27;20548;-79
2021/07/22 21:32:43;;;;;;;5.22;2.80;;;;;;;17.80;100.00;94908.84;10565695;27;20461;-81
2021/07/22 21:37:44;;;;;;;10.30;3.27;;;;;;;17.83;100.00;94905.50;10619131;27;20023;-81
2021/07/22 21:42:44;;;;;;;4.70;3.07;;;;;;;17.79;100.00;94906.47;10555090;27;20620;-81
2021/07/22 21:47:44;;;;;;;6.60;3.40;;;;;;;17.87;100.00;94905.69;10536586;27;20039;-77
2021/07/22 21:52:45;;;;;;;6.13;3.60;;;;;;;17.84;100.00;94906.31;10526817;28;20495;-78
2021/07/22 21:57:45;;;;;;;4.70;3.30;;;;;;;17.77;100.00;94906.78;10526408;28;20028;-78
2021/07/22 22:02:46;;;;;;;5.18;3.70;;;;;;;17.70;100.00;94901.00;10525594;28;20101;-77
2021/07/22 22:07:46;;;;;;;4.97;3.33;;;;;;;17.63;100.00;94904.16;10526061;28;20027;-77
2021/07/22 22:12:47;;;;;;;6.03;4.37;;;;;;;17.54;100.00;94904.13;10526161;28;20675;-77
2021/07/22 22:17:47;;;;;;;6.05;4.20;;;;;;;17.46;100.00;94915.75;10532625;28;20089;-78
2021/07/22 22:22:48;;;;;;;8.27;3.90;;;;;;;17.20;100.00;94913.69;10525698;28;20028;-78
2021/07/22 22:27:48;;;;;;;6.20;3.67;;;;;;;17.21;100.00;94915.31;10525477;28;20036;-78
2021/07/22 22:32:49;;;;;;;9.27;4.10;;;;;;;17.22;100.00;94911.50;10524180;28;20711;-78
2021/07/22 22:37:49;;;;;;;9.77;6.10;;;;;;;17.07;100.00;94903.72;10525798;28;20024;-78
2021/07/22 22:42:49;;;;;;;11.10;4.83;;;;;;;16.92;100.00;94905.69;10525750;28;20024;-78
2021/07/22 22:47:50;;;;;;;8.97;3.77;;;;;;;16.87;100.00;94907.69;10525716;28;20028;-78
2021/07/22 22:52:50;;;;;;;8.33;3.67;;;;;;;16.78;100.00;94909.56;10525553;28;20266;-78
2021/07/22 22:57:50;;;;;;;5.37;3.90;;;;;;;16.85;100.00;94899.09;10524214;28;20020;-78
2021/07/22 23:02:51;;;;;;;7.27;3.77;;;;;;;16.77;100.00;94902.53;10524211;28;20024;-78
2021/07/22 23:07:51;;;;;;;8.47;4.43;;;;;;;16.76;100.00;94901.75;10540064;28;20127;-78